createdAt,value
2022-09-25T00:00:59.920Z,12.88
2022-09-25T00:02:02.275Z,13.00
2022-09-25T00:03:04.575Z,13.01
2022-09-25T00:04:06.824Z,12.99
2022-09-25T00:05:09.151Z,12.99
2022-09-25T00:06:17.045Z,13.05
2022-09-25T00:07:19.270Z,12.98
2022-09-25T00:08:21.508Z,12.95
2022-09-25T00:09:23.705Z,13.06
2022-09-25T00:10:28.782Z,13.08
2022-09-25T00:11:32.874Z,13.01
2022-09-25T00:12:35.985Z,13.02
2022-09-25T00:13:40.377Z,12.96
2022-09-25T00:14:42.580Z,12.94
2022-09-25T00:15:51.772Z,13.00
2022-09-25T00:16:54.110Z,13.07
2022-09-25T00:17:56.392Z,13.16
2022-09-25T00:19:18.048Z,13.17
2022-09-25T00:20:26.609Z,13.16
2022-09-25T00:21:31.295Z,13.08
2022-09-25T00:22:33.779Z,13.10
2022-09-25T00:23:36.110Z,13.06
2022-09-25T00:24:38.351Z,13.05
2022-09-25T00:25:40.799Z,13.01
2022-09-25T00:26:43.435Z,13.10
2022-09-25T00:27:45.834Z,13.11
2022-09-25T00:28:48.101Z,13.05
2022-09-25T00:29:50.367Z,13.01
2022-09-25T00:30:52.723Z,13.05
2022-09-25T00:31:55.478Z,13.08
2022-09-25T00:32:57.779Z,13.07
2022-09-25T00:34:02.090Z,13.04
2022-09-25T00:35:05.142Z,12.98
2022-09-25T00:36:09.418Z,12.82
2022-09-25T00:37:11.567Z,12.93
2022-09-25T00:38:13.866Z,13.02
2022-09-25T00:39:16.162Z,13.06
2022-09-25T00:40:19.660Z,13.11
2022-09-25T00:41:24.091Z,13.18
2022-09-25T00:42:26.619Z,13.22
2022-09-25T00:43:37.477Z,13.31
2022-09-25T00:44:57.783Z,13.31
2022-09-25T00:46:02.835Z,13.32
2022-09-25T00:47:05.464Z,13.21
2022-09-25T00:48:13.517Z,13.08
2022-09-25T00:49:17.393Z,13.14
2022-09-25T00:50:34.052Z,13.10
2022-09-25T00:51:41.570Z,12.98
2022-09-25T00:52:44.683Z,12.94
2022-09-25T00:53:47.661Z,12.88
2022-09-25T00:54:58.774Z,12.96
2022-09-25T00:56:03.206Z,13.03
2022-09-25T00:57:11.085Z,13.09
2022-09-25T00:58:16.670Z,13.16
2022-09-25T00:59:22.582Z,13.13
2022-09-25T01:00:25.000Z,13.12
2022-09-25T01:01:27.747Z,13.09
2022-09-25T01:02:42.218Z,13.03
2022-09-25T01:03:46.298Z,13.02
2022-09-25T01:04:49.049Z,13.00
2022-09-25T01:05:52.770Z,12.85
2022-09-25T01:06:56.033Z,12.91
2022-09-25T01:08:01.175Z,12.96
2022-09-25T01:09:03.532Z,12.94
2022-09-25T01:10:08.012Z,12.90
2022-09-25T01:11:10.435Z,12.88
2022-09-25T01:12:17.045Z,12.86
2022-09-25T01:13:20.274Z,12.89
2022-09-25T01:14:22.886Z,12.86
2022-09-25T01:16:00.172Z,12.87
2022-09-25T01:17:10.325Z,12.87
2022-09-25T01:18:31.760Z,12.80
2022-09-25T01:19:48.751Z,12.88
2022-09-25T01:21:13.445Z,12.90
2022-09-25T01:22:43.295Z,12.89
2022-09-25T01:24:22.584Z,12.89
2022-09-25T01:25:56.912Z,12.94
2022-09-25T01:27:20.657Z,12.83
2022-09-25T01:28:29.628Z,12.80
2022-09-25T01:29:53.547Z,12.81
2022-09-25T01:31:04.588Z,12.80
2022-09-25T01:32:33.670Z,12.82
2022-09-25T01:33:46.209Z,12.75
2022-09-25T01:35:06.748Z,12.76
2022-09-25T01:36:18.037Z,12.77
2022-09-25T01:37:33.931Z,12.84
2022-09-25T01:38:42.805Z,12.81
2022-09-25T01:39:59.358Z,12.82
2022-09-25T01:41:19.626Z,12.80
2022-09-25T01:42:31.501Z,12.81
2022-09-25T01:44:03.179Z,12.79
2022-09-25T01:45:10.936Z,12.75
2022-09-25T01:46:21.680Z,12.80
2022-09-25T01:47:28.375Z,12.79
2022-09-25T01:48:33.576Z,12.83
2022-09-25T01:49:42.127Z,12.89
2022-09-25T01:50:57.347Z,12.90
2022-09-25T01:52:02.878Z,12.86
2022-09-25T01:53:12.096Z,12.88
2022-09-25T01:54:24.900Z,12.91
2022-09-25T01:55:36.018Z,12.95
2022-09-25T01:56:54.118Z,13.00
2022-09-25T01:58:05.258Z,13.01
2022-09-25T01:59:16.481Z,12.96
2022-09-25T02:00:21.917Z,12.93
2022-09-25T02:01:30.442Z,12.85
2022-09-25T02:02:39.926Z,12.87
2022-09-25T02:03:48.403Z,12.92
2022-09-25T02:05:16.092Z,12.87
2022-09-25T02:06:20.913Z,12.84
2022-09-25T02:07:30.001Z,12.80
2022-09-25T02:08:46.721Z,12.85
2022-09-25T02:09:52.850Z,12.93
2022-09-25T02:11:02.131Z,12.90
2022-09-25T02:12:18.641Z,12.99
2022-09-25T02:13:22.521Z,12.95
2022-09-25T02:14:35.273Z,12.96
2022-09-25T02:15:54.384Z,12.98
2022-09-25T02:16:58.694Z,12.95
2022-09-25T02:18:23.481Z,12.91
2022-09-25T02:19:44.936Z,12.99
2022-09-25T02:20:53.343Z,13.04
2022-09-25T02:22:07.464Z,12.97
2022-09-25T02:23:40.403Z,12.98
2022-09-25T02:24:58.896Z,12.87
2022-09-25T02:26:09.605Z,12.94
2022-09-25T02:27:11.854Z,12.94
2022-09-25T02:28:14.159Z,12.97
2022-09-25T02:29:17.241Z,12.87
2022-09-25T02:30:20.364Z,12.89
2022-09-25T02:31:30.989Z,12.95
2022-09-25T02:32:33.337Z,13.03
2022-09-25T02:33:35.887Z,13.00
2022-09-25T02:34:38.970Z,12.87
2022-09-25T02:35:42.284Z,12.82
2022-09-25T02:36:44.791Z,12.78
2022-09-25T02:37:47.213Z,12.75
2022-09-25T02:38:51.827Z,12.72
2022-09-25T02:39:58.139Z,12.77
2022-09-25T02:41:23.186Z,12.85
2022-09-25T02:42:45.164Z,12.91
2022-09-25T02:44:05.270Z,12.92
2022-09-25T02:46:03.048Z,12.87
2022-09-25T02:47:19.630Z,12.83
2022-09-25T02:48:49.606Z,12.87
2022-09-25T02:50:10.854Z,12.96
2022-09-25T02:51:34.706Z,12.94
2022-09-25T02:52:39.569Z,13.00
2022-09-25T02:53:46.993Z,13.03
2022-09-25T02:54:59.453Z,13.07
2022-09-25T02:56:24.389Z,13.04
2022-09-25T02:57:48.713Z,13.03
2022-09-25T02:58:54.871Z,12.94
2022-09-25T03:00:01.490Z,12.97
2022-09-25T03:01:07.674Z,12.97
2022-09-25T03:02:11.881Z,12.97
2022-09-25T03:03:16.780Z,12.99
2022-09-25T03:04:20.051Z,13.04
2022-09-25T03:05:25.012Z,12.87
2022-09-25T03:06:28.360Z,12.85
2022-09-25T03:07:51.985Z,12.82
2022-09-25T03:08:58.262Z,12.88
2022-09-25T03:10:00.599Z,12.90
2022-09-25T03:11:03.887Z,12.83
2022-09-25T03:12:06.150Z,12.83
2022-09-25T03:13:23.111Z,12.90
2022-09-25T03:14:27.063Z,12.95
2022-09-25T03:15:29.288Z,12.97
2022-09-25T03:16:57.264Z,12.89
2022-09-25T03:17:59.960Z,12.92
2022-09-25T03:19:03.005Z,12.93
2022-09-25T03:20:07.034Z,12.93
2022-09-25T03:21:09.226Z,12.88
2022-09-25T03:22:11.964Z,13.03
2022-09-25T03:23:14.221Z,13.02
2022-09-25T03:24:17.025Z,12.94
2022-09-25T03:25:19.379Z,12.89
2022-09-25T03:26:21.767Z,12.87
2022-09-25T03:27:28.727Z,12.81
2022-09-25T03:28:31.527Z,12.83
2022-09-25T03:29:33.732Z,12.80
2022-09-25T03:30:37.418Z,12.75
2022-09-25T03:31:41.069Z,12.74
2022-09-25T03:32:43.523Z,12.71
2022-09-25T03:33:46.631Z,12.75
2022-09-25T03:34:48.956Z,12.80
2022-09-25T03:36:03.254Z,12.84
2022-09-25T03:37:05.495Z,12.88
2022-09-25T03:38:08.685Z,12.92
2022-09-25T03:39:11.066Z,12.91
2022-09-25T03:40:13.418Z,12.95
2022-09-25T03:41:20.140Z,12.99
2022-09-25T03:42:22.433Z,12.94
2022-09-25T03:43:24.649Z,12.82
2022-09-25T03:44:26.837Z,12.93
2022-09-25T03:45:29.123Z,12.85
2022-09-25T03:46:34.612Z,12.84
2022-09-25T03:47:36.957Z,12.82
2022-09-25T03:48:40.187Z,12.84
2022-09-25T03:49:42.360Z,12.82
2022-09-25T03:50:46.091Z,12.84
2022-09-25T03:51:48.464Z,12.95
2022-09-25T03:52:50.623Z,12.97
2022-09-25T03:53:53.534Z,12.98
2022-09-25T03:54:55.913Z,13.01
2022-09-25T03:55:58.190Z,13.04
2022-09-25T03:57:00.421Z,12.95
2022-09-25T03:58:02.670Z,12.87
2022-09-25T03:59:04.894Z,12.84
2022-09-25T04:00:07.713Z,12.87
2022-09-25T04:01:19.304Z,12.96
2022-09-25T04:02:21.714Z,12.97
2022-09-25T04:03:28.426Z,12.95
2022-09-25T04:04:30.754Z,12.90
2022-09-25T04:05:33.232Z,12.88
2022-09-25T04:06:36.213Z,12.89
2022-09-25T04:07:38.439Z,12.94
2022-09-25T04:08:41.429Z,12.90
2022-09-25T04:09:44.331Z,12.92
2022-09-25T04:10:46.562Z,12.92
2022-09-25T04:11:48.983Z,12.95
2022-09-25T04:12:54.293Z,12.88
2022-09-25T04:13:57.269Z,12.83
2022-09-25T04:14:59.615Z,12.79
2022-09-25T04:16:04.914Z,12.87
2022-09-25T04:17:07.737Z,12.86
2022-09-25T04:18:09.939Z,12.81
2022-09-25T04:19:12.293Z,12.78
2022-09-25T04:20:14.506Z,12.76
2022-09-25T04:21:16.876Z,12.67
2022-09-25T04:22:19.243Z,12.68
2022-09-25T04:23:21.498Z,12.72
2022-09-25T04:24:41.998Z,12.72
2022-09-25T04:25:45.764Z,12.71
2022-09-25T04:26:48.013Z,12.77
2022-09-25T04:27:50.182Z,12.75
2022-09-25T04:28:52.513Z,12.75
2022-09-25T04:29:54.810Z,12.73
2022-09-25T04:30:57.188Z,12.75
2022-09-25T04:32:18.098Z,12.80
2022-09-25T04:33:38.610Z,12.76
2022-09-25T04:34:40.819Z,12.86
2022-09-25T04:35:43.173Z,12.86
2022-09-25T04:36:45.321Z,12.85
2022-09-25T04:37:47.683Z,12.88
2022-09-25T04:38:49.940Z,12.87
2022-09-25T04:39:58.553Z,12.84
2022-09-25T04:41:01.925Z,12.76
2022-09-25T04:42:04.297Z,12.71
2022-09-25T04:43:07.400Z,12.65
2022-09-25T04:44:09.613Z,12.76
2022-09-25T04:45:11.823Z,12.74
2022-09-25T04:46:20.914Z,12.75
2022-09-25T04:47:26.294Z,12.71
2022-09-25T04:48:29.205Z,12.65
2022-09-25T04:49:31.490Z,12.68
2022-09-25T04:50:34.626Z,12.69
2022-09-25T04:51:39.886Z,12.70
2022-09-25T04:52:42.049Z,12.71
2022-09-25T04:53:44.329Z,12.69
2022-09-25T04:54:47.600Z,12.75
2022-09-25T04:55:49.857Z,12.75
2022-09-25T04:56:52.342Z,12.67
2022-09-25T04:57:59.287Z,12.66
2022-09-25T04:59:01.939Z,12.65
2022-09-25T05:00:06.132Z,12.75
2022-09-25T05:01:09.817Z,12.82
2022-09-25T05:02:12.944Z,12.82
2022-09-25T05:03:15.447Z,12.67
2022-09-25T05:04:17.742Z,12.63
2022-09-25T05:05:20.415Z,12.70
2022-09-25T05:06:23.182Z,12.74
2022-09-25T05:07:25.476Z,12.71
2022-09-25T05:08:27.838Z,12.79
2022-09-25T05:09:30.715Z,12.77
2022-09-25T05:10:39.605Z,12.78
2022-09-25T05:11:41.866Z,12.78
2022-09-25T05:12:45.119Z,12.79
2022-09-25T05:13:51.258Z,12.81
2022-09-25T05:14:53.568Z,12.78
2022-09-25T05:15:56.383Z,12.77
2022-09-25T05:16:58.700Z,12.80
2022-09-25T05:18:16.607Z,12.87
2022-09-25T05:19:18.881Z,12.96
2022-09-25T05:20:21.121Z,12.92
2022-09-25T05:21:23.309Z,12.86
2022-09-25T05:22:25.505Z,12.89
2022-09-25T05:23:27.803Z,12.91
2022-09-25T05:24:31.163Z,12.90
2022-09-25T05:25:33.390Z,12.82
2022-09-25T05:26:37.349Z,12.76
2022-09-25T05:27:39.533Z,12.72
2022-09-25T05:28:41.735Z,12.71
2022-09-25T05:29:43.945Z,12.65
2022-09-25T05:30:46.166Z,12.67
2022-09-25T05:31:49.810Z,12.66
2022-09-25T05:32:53.198Z,12.72
2022-09-25T05:33:55.466Z,12.79
2022-09-25T05:34:57.792Z,12.84
2022-09-25T05:36:01.769Z,12.87
2022-09-25T05:37:03.974Z,12.88
2022-09-25T05:38:06.755Z,12.84
2022-09-25T05:39:14.219Z,12.72
2022-09-25T05:40:19.464Z,12.69
2022-09-25T05:41:21.764Z,12.71
2022-09-25T05:42:23.966Z,12.82
2022-09-25T05:43:26.544Z,12.92
2022-09-25T05:44:28.747Z,12.99
2022-09-25T05:45:31.330Z,13.02
2022-09-25T05:46:33.997Z,13.06
2022-09-25T05:47:36.189Z,13.07
2022-09-25T05:48:38.596Z,13.13
2022-09-25T05:49:40.915Z,13.18
2022-09-25T05:50:43.116Z,13.10
2022-09-25T05:51:45.355Z,13.20
2022-09-25T05:52:55.565Z,12.89
2022-09-25T05:53:58.160Z,12.97
2022-09-25T05:55:00.885Z,12.94
2022-09-25T05:56:05.147Z,12.95
2022-09-25T05:57:07.346Z,12.99
2022-09-25T05:58:09.543Z,13.05
2022-09-25T05:59:11.706Z,12.99
2022-09-25T06:00:15.074Z,13.04
2022-09-25T06:01:17.623Z,13.07
2022-09-25T06:02:19.910Z,13.04
2022-09-25T06:03:22.577Z,13.06
2022-09-25T06:04:25.276Z,13.10
2022-09-25T06:05:27.518Z,13.14
2022-09-25T06:06:31.718Z,13.10
2022-09-25T06:07:33.949Z,13.08
2022-09-25T06:08:36.409Z,13.09
2022-09-25T06:09:38.677Z,13.10
2022-09-25T06:10:41.640Z,13.12
2022-09-25T06:11:47.345Z,13.17
2022-09-25T06:12:49.631Z,13.20
2022-09-25T06:13:54.697Z,13.19
2022-09-25T06:14:57.669Z,13.03
2022-09-25T06:16:00.659Z,12.99
2022-09-25T06:17:03.601Z,12.99
2022-09-25T06:18:06.681Z,12.97
2022-09-25T06:19:08.952Z,12.98
2022-09-25T06:20:15.898Z,13.11
2022-09-25T06:21:18.611Z,13.08
2022-09-25T06:22:20.798Z,13.11
2022-09-25T06:23:23.128Z,13.00
2022-09-25T06:24:25.569Z,13.00
2022-09-25T06:25:30.791Z,12.96
2022-09-25T06:26:33.978Z,12.96
2022-09-25T06:27:36.984Z,13.02
2022-09-25T06:28:39.495Z,12.80
2022-09-25T06:29:41.778Z,12.82
2022-09-25T06:30:45.367Z,12.93
2022-09-25T06:31:47.627Z,12.99
2022-09-25T06:32:57.579Z,13.10
2022-09-25T06:34:01.331Z,13.21
2022-09-25T06:35:04.343Z,13.20
2022-09-25T06:36:06.603Z,13.20
2022-09-25T06:37:09.000Z,13.15
2022-09-25T06:38:12.318Z,13.21
2022-09-25T06:39:14.567Z,13.21
2022-09-25T06:40:16.780Z,13.15
2022-09-25T06:41:19.026Z,12.97
2022-09-25T06:42:21.743Z,13.03
2022-09-25T06:43:23.975Z,13.12
2022-09-25T06:44:28.888Z,13.12
2022-09-25T06:45:58.995Z,13.10
2022-09-25T06:47:38.661Z,13.10
2022-09-25T06:48:45.035Z,13.09
2022-09-25T06:49:55.052Z,12.93
2022-09-25T06:50:59.651Z,12.91
2022-09-25T06:52:01.887Z,13.02
2022-09-25T06:53:04.160Z,13.10
2022-09-25T06:54:06.859Z,13.03
2022-09-25T06:55:09.158Z,12.99
2022-09-25T06:56:12.350Z,13.08
2022-09-25T06:57:14.905Z,12.86
2022-09-25T06:58:23.124Z,12.74
2022-09-25T06:59:25.911Z,12.83
2022-09-25T07:00:28.172Z,13.00
2022-09-25T07:01:30.611Z,13.04
2022-09-25T07:02:51.952Z,12.95
2022-09-25T07:03:54.328Z,13.05
2022-09-25T07:04:56.646Z,12.91
2022-09-25T07:06:03.333Z,13.04
2022-09-25T07:07:05.795Z,12.84
2022-09-25T07:08:08.250Z,12.83
2022-09-25T07:09:10.624Z,13.06
2022-09-25T07:10:13.096Z,13.13
2022-09-25T07:11:18.101Z,13.18
2022-09-25T07:12:21.871Z,13.32
2022-09-25T07:13:26.478Z,13.05
2022-09-25T07:14:28.829Z,13.09
2022-09-25T07:15:31.316Z,13.19
2022-09-25T07:16:34.440Z,13.21
2022-09-25T07:17:36.849Z,13.20
2022-09-25T07:19:01.243Z,13.04
2022-09-25T07:20:08.253Z,13.06
2022-09-25T07:21:13.401Z,13.17
2022-09-25T07:22:16.387Z,13.15
2022-09-25T07:23:20.277Z,13.17
2022-09-25T07:24:22.651Z,12.92
2022-09-25T07:25:24.885Z,12.84
2022-09-25T07:26:29.560Z,12.97
2022-09-25T07:27:32.149Z,13.09
2022-09-25T07:28:35.214Z,13.18
2022-09-25T07:29:37.638Z,13.12
2022-09-25T07:30:41.455Z,13.19
2022-09-25T07:31:43.948Z,13.19
2022-09-25T07:32:46.472Z,13.26
2022-09-25T07:33:49.190Z,13.29
2022-09-25T07:34:51.742Z,13.29
2022-09-25T07:35:53.990Z,13.18
2022-09-25T07:36:56.351Z,13.09
2022-09-25T07:37:58.631Z,13.02
2022-09-25T07:39:01.382Z,13.09
2022-09-25T07:40:03.846Z,13.06
2022-09-25T07:41:07.970Z,13.16
2022-09-25T07:42:10.737Z,13.16
2022-09-25T07:43:13.028Z,13.26
2022-09-25T07:44:36.290Z,13.33
2022-09-25T07:45:37.706Z,13.32
2022-09-25T07:46:44.268Z,13.47
2022-09-25T07:47:46.888Z,13.62
2022-09-25T07:48:50.221Z,13.62
2022-09-25T07:49:54.394Z,13.76
2022-09-25T07:51:00.231Z,13.78
2022-09-25T07:52:06.025Z,13.79
2022-09-25T07:53:08.437Z,13.34
2022-09-25T07:54:10.902Z,13.49
2022-09-25T07:55:13.380Z,13.65
2022-09-25T07:56:17.671Z,13.77
2022-09-25T07:57:20.673Z,13.56
2022-09-25T07:58:23.120Z,13.71
2022-09-25T07:59:25.497Z,13.59
2022-09-25T08:00:28.005Z,13.65
2022-09-25T08:01:30.326Z,13.55
2022-09-25T08:02:35.195Z,13.45
2022-09-25T08:03:37.646Z,13.36
2022-09-25T08:04:40.068Z,13.40
2022-09-25T08:05:42.335Z,13.58
2022-09-25T08:06:44.707Z,13.76
2022-09-25T08:07:47.066Z,13.84
2022-09-25T08:08:49.413Z,13.85
2022-09-25T08:09:51.995Z,14.00
2022-09-25T08:10:59.793Z,14.03
2022-09-25T08:12:02.452Z,13.70
2022-09-25T08:13:04.999Z,13.52
2022-09-25T08:14:07.508Z,13.42
2022-09-25T08:15:10.651Z,13.40
2022-09-25T08:16:18.411Z,13.64
2022-09-25T08:17:22.147Z,13.73
2022-09-25T08:18:24.484Z,13.79
2022-09-25T08:19:27.902Z,13.78
2022-09-25T08:20:30.247Z,13.79
2022-09-25T08:21:34.045Z,13.64
2022-09-25T08:22:36.514Z,13.82
2022-09-25T08:23:38.842Z,13.68
2022-09-25T08:24:41.290Z,13.67
2022-09-25T08:25:48.296Z,13.66
2022-09-25T08:26:50.678Z,13.80
2022-09-25T08:27:53.141Z,13.84
2022-09-25T08:28:56.803Z,13.89
2022-09-25T08:29:59.203Z,13.70
2022-09-25T08:31:04.011Z,13.98
2022-09-25T08:32:06.907Z,14.00
2022-09-25T08:33:15.425Z,14.11
2022-09-25T08:34:39.890Z,14.11
2022-09-25T08:35:41.469Z,13.89
2022-09-25T08:36:44.264Z,13.99
2022-09-25T08:37:48.699Z,14.00
2022-09-25T08:38:53.200Z,14.06
2022-09-25T08:39:55.815Z,13.86
2022-09-25T08:41:15.736Z,13.72
2022-09-25T08:42:30.124Z,13.73
2022-09-25T08:43:35.225Z,13.82
2022-09-25T08:44:56.932Z,14.03
2022-09-25T08:46:34.351Z,14.14
2022-09-25T08:47:56.621Z,14.25
2022-09-25T08:49:02.477Z,14.28
2022-09-25T08:50:12.559Z,14.20
2022-09-25T08:51:18.799Z,13.99
2022-09-25T08:52:22.878Z,14.15
2022-09-25T08:53:27.106Z,14.27
2022-09-25T08:54:32.117Z,14.23
2022-09-25T08:55:57.938Z,14.35
2022-09-25T08:57:07.233Z,14.36
2022-09-25T08:58:10.289Z,14.27
2022-09-25T08:59:26.196Z,14.32
2022-09-25T09:00:29.284Z,14.24
2022-09-25T09:01:44.769Z,14.06
2022-09-25T09:02:53.154Z,13.81
2022-09-25T09:04:08.943Z,13.92
2022-09-25T09:05:31.512Z,14.04
2022-09-25T09:06:35.810Z,13.91
2022-09-25T09:07:58.701Z,13.84
2022-09-25T09:09:12.446Z,14.04
2022-09-25T09:10:32.883Z,14.07
2022-09-25T09:11:41.464Z,14.16
2022-09-25T09:12:53.606Z,14.17
2022-09-25T09:14:04.674Z,14.33
2022-09-25T09:15:16.313Z,14.29
2022-09-25T09:16:30.390Z,14.42
2022-09-25T09:17:41.559Z,14.23
2022-09-25T09:18:44.154Z,13.95
2022-09-25T09:19:50.394Z,14.03
2022-09-25T09:20:58.164Z,14.03
2022-09-25T09:22:11.024Z,14.01
2022-09-25T09:23:19.168Z,14.12
2022-09-25T09:24:48.805Z,14.27
2022-09-25T09:25:57.756Z,14.40
2022-09-25T09:27:14.822Z,14.41
2022-09-25T09:28:54.308Z,14.39
2022-09-25T09:30:10.534Z,14.39
2022-09-25T09:31:46.828Z,14.36
2022-09-25T09:33:06.962Z,14.60
2022-09-25T09:35:01.135Z,14.58
2022-09-25T09:36:20.067Z,14.68
2022-09-25T09:37:53.086Z,14.62
2022-09-25T09:39:14.084Z,14.35
2022-09-25T09:40:19.189Z,14.35
2022-09-25T09:42:09.174Z,14.70
2022-09-25T09:43:32.852Z,14.57
2022-09-25T09:44:54.500Z,14.58
2022-09-25T09:46:07.805Z,14.46
2022-09-25T09:47:43.775Z,14.41
2022-09-25T09:49:20.287Z,14.25
2022-09-25T09:50:41.820Z,14.36
2022-09-25T09:52:00.709Z,14.27
2022-09-25T09:53:09.887Z,14.48
2022-09-25T09:54:21.299Z,14.58
2022-09-25T09:55:45.124Z,14.64
2022-09-25T09:56:50.554Z,14.75
2022-09-25T09:57:56.279Z,14.64
2022-09-25T09:59:03.457Z,14.59
2022-09-25T10:00:16.486Z,14.78
2022-09-25T10:02:54.291Z,14.69
2022-09-25T10:04:18.647Z,14.78
2022-09-25T10:05:44.629Z,14.37
2022-09-25T10:06:53.771Z,14.45
2022-09-25T10:07:56.430Z,14.48
2022-09-25T10:08:59.230Z,14.61
2022-09-25T10:10:01.940Z,14.56
2022-09-25T10:11:12.242Z,14.44
2022-09-25T10:12:35.905Z,14.61
2022-09-25T10:13:40.014Z,14.62
2022-09-25T10:14:46.175Z,14.71
2022-09-25T10:16:15.122Z,14.61
2022-09-25T10:17:19.748Z,14.44
2022-09-25T10:18:28.001Z,14.66
2022-09-25T10:19:42.186Z,14.74
2022-09-25T10:20:46.664Z,14.55
2022-09-25T10:21:59.502Z,14.59
2022-09-25T10:23:04.857Z,14.62
2022-09-25T10:24:07.512Z,14.77
2022-09-25T10:25:10.271Z,14.89
2022-09-25T10:26:27.842Z,14.42
2022-09-25T10:27:41.346Z,14.73
2022-09-25T10:28:46.819Z,14.49
2022-09-25T10:30:09.952Z,14.55
2022-09-25T10:31:12.974Z,14.66
2022-09-25T10:32:17.278Z,14.92
2022-09-25T10:33:23.423Z,14.95
2022-09-25T10:34:28.176Z,14.66
2022-09-25T10:35:39.626Z,14.62
2022-09-25T10:36:45.110Z,14.74
2022-09-25T10:37:55.561Z,14.65
2022-09-25T10:39:18.085Z,14.82
2022-09-25T10:40:35.005Z,14.99
2022-09-25T10:41:43.488Z,14.68
2022-09-25T10:42:45.947Z,14.76
2022-09-25T10:43:56.999Z,14.59
2022-09-25T10:44:59.351Z,14.38
2022-09-25T10:46:08.336Z,14.31
2022-09-25T10:47:38.311Z,14.49
2022-09-25T10:49:01.430Z,14.41
2022-09-25T10:50:13.433Z,14.35
2022-09-25T10:51:18.098Z,14.19
2022-09-25T10:52:22.375Z,14.29
2022-09-25T10:53:30.131Z,14.45
2022-09-25T10:54:40.316Z,14.20
2022-09-25T10:55:51.477Z,14.39
2022-09-25T10:56:53.843Z,14.59
2022-09-25T10:58:10.641Z,14.55
2022-09-25T10:59:21.412Z,14.77
2022-09-25T11:00:25.595Z,14.80
2022-09-25T11:01:36.939Z,14.87
2022-09-25T11:02:46.614Z,15.00
2022-09-25T11:03:52.949Z,14.79
2022-09-25T11:05:04.315Z,14.93
2022-09-25T11:06:22.357Z,15.08
2022-09-25T11:07:27.806Z,15.15
2022-09-25T11:08:34.322Z,15.14
2022-09-25T11:09:44.757Z,15.42
2022-09-25T11:10:58.205Z,15.32
2022-09-25T11:12:07.895Z,15.40
2022-09-25T11:13:24.241Z,15.56
2022-09-25T11:14:32.580Z,15.29
2022-09-25T11:15:38.924Z,15.35
2022-09-25T11:16:54.657Z,15.42
2022-09-25T11:17:58.536Z,15.57
2022-09-25T11:19:23.224Z,15.75
2022-09-25T11:20:29.840Z,15.79
2022-09-25T11:21:38.702Z,15.96
2022-09-25T11:22:43.623Z,16.11
2022-09-25T11:24:01.341Z,16.02
2022-09-25T11:25:15.898Z,16.12
2022-09-25T11:26:28.369Z,16.39
2022-09-25T11:27:34.748Z,16.34
2022-09-25T11:28:57.623Z,16.46
2022-09-25T11:30:06.708Z,16.68
2022-09-25T11:31:31.044Z,16.74
2022-09-25T11:32:54.279Z,16.52
2022-09-25T11:34:12.806Z,16.57
2022-09-25T11:35:42.915Z,16.60
2022-09-25T11:36:49.348Z,16.52
2022-09-25T11:38:09.647Z,16.55
2022-09-25T11:39:39.324Z,16.39
2022-09-25T11:41:12.397Z,16.28
2022-09-25T11:42:38.773Z,16.26
2022-09-25T11:44:04.491Z,16.22
2022-09-25T11:45:24.212Z,16.49
2022-09-25T11:46:50.222Z,16.65
2022-09-25T11:48:05.360Z,16.42
2022-09-25T11:49:20.011Z,16.17
2022-09-25T11:50:46.498Z,16.29
2022-09-25T11:52:02.472Z,15.96
2022-09-25T11:53:33.540Z,15.73
2022-09-25T11:54:57.418Z,15.92
2022-09-25T11:56:18.353Z,16.28
2022-09-25T11:57:35.419Z,16.32
2022-09-25T11:58:53.296Z,16.50
2022-09-25T12:00:11.518Z,16.64
2022-09-25T12:01:16.804Z,16.51
2022-09-25T12:02:58.230Z,16.59
2022-09-25T12:04:13.571Z,16.53
2022-09-25T12:05:27.431Z,16.60
2022-09-25T12:06:55.099Z,16.42
2022-09-25T12:08:06.033Z,16.44
2022-09-25T12:09:20.086Z,16.57
2022-09-25T12:10:46.825Z,16.29
2022-09-25T12:11:54.721Z,16.34
2022-09-25T12:13:20.711Z,16.24
2022-09-25T12:14:28.516Z,16.25
2022-09-25T12:15:42.336Z,16.02
2022-09-25T12:17:08.999Z,16.16
2022-09-25T12:18:43.728Z,16.05
2022-09-25T12:20:26.505Z,16.38
2022-09-25T12:21:41.698Z,16.40
2022-09-25T12:23:17.713Z,16.07
2022-09-25T12:24:34.870Z,16.38
2022-09-25T12:25:50.192Z,16.14
2022-09-25T12:27:30.271Z,15.90
2022-09-25T12:29:04.157Z,15.82
2022-09-25T12:30:22.871Z,16.18
2022-09-25T12:31:31.189Z,16.10
2022-09-25T12:32:45.625Z,16.20
2022-09-25T12:34:26.810Z,16.14
2022-09-25T12:35:42.190Z,16.16
2022-09-25T12:37:13.071Z,16.12
2022-09-25T12:38:29.406Z,15.83
2022-09-25T12:39:40.441Z,15.53
2022-09-25T12:40:51.042Z,15.70
2022-09-25T12:42:04.742Z,15.84
2022-09-25T12:43:14.716Z,16.07
2022-09-25T12:44:23.685Z,15.87
2022-09-25T12:45:32.007Z,16.04
2022-09-25T12:46:42.513Z,16.13
2022-09-25T12:47:57.776Z,15.51
2022-09-25T12:49:34.805Z,15.72
2022-09-25T12:50:46.599Z,15.91
2022-09-25T12:51:51.289Z,16.05
2022-09-25T12:53:09.420Z,16.12
2022-09-25T12:54:17.486Z,16.22
2022-09-25T12:55:32.216Z,16.25
2022-09-25T12:56:43.859Z,16.42
2022-09-25T12:58:18.451Z,16.33
2022-09-25T12:59:41.491Z,16.13
2022-09-25T13:00:52.214Z,16.04
2022-09-25T13:02:07.104Z,16.32
2022-09-25T13:03:18.133Z,16.52
2022-09-25T13:04:33.965Z,16.57
2022-09-25T13:05:59.087Z,16.62
2022-09-25T13:07:05.121Z,16.74
2022-09-25T13:08:19.198Z,16.44
2022-09-25T13:09:33.348Z,16.23
2022-09-25T13:10:46.539Z,16.44
2022-09-25T13:12:35.968Z,16.19
2022-09-25T13:13:45.483Z,16.21
2022-09-25T13:15:00.656Z,16.23
2022-09-25T13:16:03.456Z,16.52
2022-09-25T13:17:10.614Z,16.44
2022-09-25T13:18:18.180Z,16.59
2022-09-25T13:19:35.114Z,16.30
2022-09-25T13:20:37.698Z,16.69
2022-09-25T13:21:43.025Z,16.69
2022-09-25T13:22:45.251Z,16.68
2022-09-25T13:23:51.687Z,16.78
2022-09-25T13:25:13.833Z,16.95
2022-09-25T13:26:19.004Z,17.10
2022-09-25T13:27:24.307Z,16.96
2022-09-25T13:28:33.534Z,16.79
2022-09-25T13:29:39.008Z,16.49
2022-09-25T13:31:06.725Z,16.35
2022-09-25T13:32:16.241Z,16.48
2022-09-25T13:33:21.150Z,16.62
2022-09-25T13:34:24.389Z,16.65
2022-09-25T13:35:26.915Z,16.69
2022-09-25T13:36:31.979Z,16.57
2022-09-25T13:37:38.562Z,16.37
2022-09-25T13:39:03.570Z,16.19
2022-09-25T13:40:42.795Z,16.12
2022-09-25T13:41:49.964Z,15.86
2022-09-25T13:42:52.689Z,15.76
2022-09-25T13:44:33.465Z,15.79
2022-09-25T13:45:37.298Z,15.92
2022-09-25T13:46:39.596Z,15.96
2022-09-25T13:47:54.683Z,15.89
2022-09-25T13:49:33.582Z,15.75
2022-09-25T13:50:46.471Z,15.70
2022-09-25T13:51:48.810Z,15.90
2022-09-25T13:53:17.579Z,16.07
2022-09-25T13:54:26.926Z,16.13
2022-09-25T13:55:32.391Z,15.85
2022-09-25T13:56:40.349Z,15.90
2022-09-25T13:57:58.375Z,15.94
2022-09-25T13:59:13.716Z,15.92
2022-09-25T14:00:16.520Z,15.96
2022-09-25T14:01:33.827Z,15.95
2022-09-25T14:02:42.003Z,15.98
2022-09-25T14:03:46.970Z,16.05
2022-09-25T14:04:49.303Z,16.10
2022-09-25T14:05:51.578Z,15.97
2022-09-25T14:07:06.600Z,15.88
2022-09-25T14:08:15.809Z,15.86
2022-09-25T14:09:23.479Z,15.96
2022-09-25T14:10:26.505Z,15.91
2022-09-25T14:11:32.285Z,15.44
2022-09-25T14:12:48.034Z,15.62
2022-09-25T14:13:55.139Z,15.51
2022-09-25T14:15:08.020Z,15.59
2022-09-25T14:16:23.205Z,15.56
2022-09-25T14:17:30.256Z,15.59
2022-09-25T14:18:40.860Z,15.18
2022-09-25T14:19:48.504Z,15.31
2022-09-25T14:20:56.547Z,15.52
2022-09-25T14:22:02.246Z,15.62
2022-09-25T14:23:12.155Z,15.53
2022-09-25T14:24:25.617Z,15.22
2022-09-25T14:25:42.789Z,15.59
2022-09-25T14:26:46.231Z,15.79
2022-09-25T14:27:51.330Z,15.76
2022-09-25T14:28:55.812Z,15.85
2022-09-25T14:30:07.346Z,16.30
2022-09-25T14:31:27.978Z,16.27
2022-09-25T14:32:56.016Z,16.74
2022-09-25T14:34:25.808Z,16.34
2022-09-25T14:35:39.485Z,16.72
2022-09-25T14:36:41.617Z,16.77
2022-09-25T14:38:07.350Z,16.60
2022-09-25T14:39:21.127Z,16.52
2022-09-25T14:40:33.737Z,16.61
2022-09-25T14:41:49.076Z,16.33
2022-09-25T14:43:00.124Z,16.43
2022-09-25T14:44:25.756Z,16.42
2022-09-25T14:45:42.249Z,16.69
2022-09-25T14:46:49.761Z,16.42
2022-09-25T14:47:55.975Z,16.56
2022-09-25T14:49:24.062Z,16.78
2022-09-25T14:50:30.568Z,16.57
2022-09-25T14:51:47.180Z,16.85
2022-09-25T14:52:54.348Z,16.66
2022-09-25T14:54:02.190Z,16.48
2022-09-25T14:55:05.265Z,16.25